createdAt,value
2019-04-13T00:01:11.013Z,72.00
2019-04-13T00:03:37.326Z,71.90
2019-04-13T00:06:08.098Z,72.30
2019-04-13T00:08:36.332Z,72.90
2019-04-13T00:11:04.592Z,72.90
2019-04-13T00:13:30.798Z,73.20
2019-04-13T00:15:57.250Z,72.70
2019-04-13T00:18:23.494Z,72.60
2019-04-13T00:20:49.651Z,72.90
2019-04-13T00:23:15.979Z,73.00
2019-04-13T00:25:42.140Z,73.20
2019-04-13T00:28:08.364Z,73.40
2019-04-13T00:30:34.500Z,73.70
2019-04-13T00:33:00.842Z,74.20
2019-04-13T00:35:27.051Z,74.10
2019-04-13T00:37:53.176Z,75.20
2019-04-13T00:40:19.355Z,75.00
2019-04-13T00:42:45.505Z,75.20
2019-04-13T00:45:12.170Z,75.00
2019-04-13T00:47:38.365Z,75.50
2019-04-13T00:50:05.363Z,75.60
2019-04-13T00:52:31.617Z,75.20
2019-04-13T00:54:57.796Z,75.80
2019-04-13T00:57:24.039Z,76.40
2019-04-13T00:59:50.188Z,77.20
2019-04-13T01:02:16.331Z,78.00
2019-04-13T01:04:53.049Z,78.00
2019-04-13T01:07:10.733Z,78.10
2019-04-13T01:09:37.078Z,78.40
2019-04-13T01:12:03.442Z,77.80
2019-04-13T01:14:29.670Z,78.10
2019-04-13T01:16:56.008Z,77.20
2019-04-13T01:19:22.354Z,77.50
2019-04-13T01:21:48.559Z,78.10
2019-04-13T01:24:14.772Z,78.40
2019-04-13T01:26:40.898Z,79.30
2019-04-13T01:29:07.041Z,78.80
2019-04-13T01:31:33.193Z,76.70
2019-04-13T01:33:59.445Z,75.60
2019-04-13T01:36:25.662Z,74.70
2019-04-13T01:38:52.052Z,73.80
2019-04-13T01:41:18.257Z,74.10
2019-04-13T01:43:44.449Z,73.30
2019-04-13T01:46:10.645Z,73.10
2019-04-13T01:48:36.870Z,73.20
2019-04-13T01:51:03.195Z,73.40
2019-04-13T01:53:29.458Z,72.90
2019-04-13T01:55:55.695Z,73.20
2019-04-13T01:58:21.853Z,72.60
2019-04-13T02:00:52.785Z,72.50
2019-04-13T02:03:19.156Z,71.70
2019-04-13T02:06:04.050Z,71.90
2019-04-13T02:08:49.123Z,71.60
2019-04-13T02:11:26.247Z,71.70
2019-04-13T02:13:52.395Z,71.70
2019-04-13T02:16:18.517Z,71.20
2019-04-13T02:18:44.721Z,70.40
2019-04-13T02:21:10.975Z,70.00
2019-04-13T02:23:37.135Z,70.20
2019-04-13T02:26:03.355Z,70.90
2019-04-13T02:28:29.590Z,70.80
2019-04-13T02:30:55.940Z,70.50
2019-04-13T02:33:22.200Z,70.80
2019-04-13T02:35:48.388Z,70.60
2019-04-13T02:38:14.547Z,70.80
2019-04-13T02:40:40.797Z,70.90
2019-04-13T02:43:07.032Z,70.80
2019-04-13T02:45:33.287Z,70.60
2019-04-13T02:47:59.629Z,70.20
2019-04-13T02:50:25.752Z,70.50
2019-04-13T02:52:52.020Z,70.10
2019-04-13T02:55:18.285Z,70.50
2019-04-13T02:57:44.538Z,70.40
2019-04-13T03:00:11.984Z,70.40
2019-04-13T03:02:38.502Z,70.10
2019-04-13T03:05:05.345Z,70.00
2019-04-13T03:07:31.798Z,69.60
2019-04-13T03:09:58.122Z,69.70
2019-04-13T03:12:24.438Z,70.00
2019-04-13T03:14:50.790Z,69.90
2019-04-13T03:17:25.196Z,69.60
2019-04-13T03:19:59.276Z,69.70
2019-04-13T03:22:25.500Z,69.70
2019-04-13T03:24:51.749Z,69.40
2019-04-13T03:27:18.013Z,69.10
2019-04-13T03:29:44.241Z,69.60
2019-04-13T03:32:10.484Z,69.30
2019-04-13T03:34:36.704Z,69.70
2019-04-13T03:37:02.975Z,69.70
2019-04-13T03:39:29.378Z,69.20
2019-04-13T03:41:55.610Z,69.20
2019-04-13T03:44:21.844Z,69.30
2019-04-13T03:46:48.022Z,69.30
2019-04-13T03:49:14.133Z,69.90
2019-04-13T03:51:40.268Z,70.10
2019-04-13T03:54:06.521Z,69.80
2019-04-13T03:56:32.780Z,70.00
2019-04-13T03:58:59.137Z,70.00
2019-04-13T04:01:25.247Z,70.20
2019-04-13T04:03:51.406Z,69.90
2019-04-13T04:06:17.628Z,70.30
2019-04-13T04:08:43.780Z,70.30
2019-04-13T04:11:10.016Z,70.60
2019-04-13T04:13:36.167Z,70.70
2019-04-13T04:16:02.379Z,70.50
2019-04-13T04:18:28.944Z,70.50
2019-04-13T04:20:55.187Z,70.80
2019-04-13T04:23:21.516Z,71.20
2019-04-13T04:25:47.654Z,71.40
2019-04-13T04:28:13.766Z,71.20
2019-04-13T04:30:40.082Z,71.40
2019-04-13T04:33:06.228Z,71.50
2019-04-13T04:35:32.444Z,71.00
2019-04-13T04:37:58.686Z,71.50
2019-04-13T04:40:24.929Z,71.60
2019-04-13T04:42:51.209Z,71.90
2019-04-13T04:45:17.394Z,71.60
2019-04-13T04:47:43.786Z,71.70
2019-04-13T04:50:10.035Z,71.50
2019-04-13T04:52:36.199Z,72.20
2019-04-13T04:55:03.904Z,72.40
2019-04-13T04:57:30.133Z,72.60
2019-04-13T04:59:56.403Z,72.70
2019-04-13T05:02:22.604Z,72.90
2019-04-13T05:04:48.833Z,73.10
2019-04-13T05:07:15.038Z,73.60
2019-04-13T05:09:41.203Z,73.40
2019-04-13T05:12:07.336Z,73.70
2019-04-13T05:14:33.559Z,73.60
2019-04-13T05:16:59.702Z,74.00
2019-04-13T05:19:25.965Z,73.70
2019-04-13T05:21:52.177Z,73.90
2019-04-13T05:24:18.402Z,74.00
2019-04-13T05:26:44.556Z,74.10
2019-04-13T05:29:10.869Z,73.70
2019-04-13T05:31:37.007Z,74.10
2019-04-13T05:34:03.140Z,74.40
2019-04-13T05:36:29.413Z,74.40
2019-04-13T05:38:55.871Z,74.00
2019-04-13T05:41:22.079Z,74.60
2019-04-13T05:43:48.271Z,74.70
2019-04-13T05:46:14.575Z,74.50
2019-04-13T05:48:40.790Z,74.60
2019-04-13T05:51:07.415Z,74.80
2019-04-13T05:53:33.592Z,74.90
2019-04-13T05:55:59.719Z,75.00
2019-04-13T05:58:25.930Z,75.30
2019-04-13T06:00:52.487Z,75.50
2019-04-13T06:03:18.618Z,75.30
2019-04-13T06:05:44.868Z,75.80
2019-04-13T06:08:11.094Z,75.90
2019-04-13T06:10:37.241Z,76.00
2019-04-13T06:13:03.578Z,76.30
2019-04-13T06:15:31.127Z,76.20
2019-04-13T06:17:57.786Z,76.30
2019-04-13T06:20:23.919Z,75.90
2019-04-13T06:22:52.199Z,76.00
2019-04-13T06:25:18.205Z,76.40
2019-04-13T06:27:44.454Z,76.50
2019-04-13T06:30:31.015Z,76.70
2019-04-13T06:32:59.117Z,76.90
2019-04-13T06:35:27.303Z,76.90
2019-04-13T06:37:55.357Z,77.20
2019-04-13T06:40:21.692Z,77.60
2019-04-13T06:42:50.256Z,78.00
2019-04-13T06:45:16.405Z,77.70
2019-04-13T06:47:42.675Z,78.00
2019-04-13T06:50:08.985Z,78.10
2019-04-13T06:52:36.036Z,78.70
2019-04-13T06:55:05.480Z,78.80
2019-04-13T06:57:31.770Z,78.70
2019-04-13T06:59:58.237Z,78.70
2019-04-13T07:02:24.596Z,78.40
2019-04-13T07:04:50.751Z,78.00
2019-04-13T07:07:30.939Z,78.30
2019-04-13T07:10:15.439Z,78.10
2019-04-13T07:12:52.495Z,78.10
2019-04-13T07:15:18.830Z,77.80
2019-04-13T07:17:44.960Z,78.50
2019-04-13T07:20:14.275Z,78.80
2019-04-13T07:22:39.338Z,78.50
2019-04-13T07:25:05.688Z,77.30
2019-04-13T07:27:31.969Z,77.50
2019-04-13T07:29:58.162Z,77.50
2019-04-13T07:32:24.396Z,77.20
2019-04-13T07:34:50.643Z,77.70
2019-04-13T07:37:16.982Z,77.40
2019-04-13T07:39:43.119Z,77.60
2019-04-13T07:42:09.234Z,77.80
2019-04-13T07:44:40.314Z,77.90
2019-04-13T07:47:26.688Z,77.70
2019-04-13T07:50:01.100Z,78.40
2019-04-13T07:52:29.851Z,78.10
2019-04-13T07:54:56.060Z,77.60
2019-04-13T07:57:22.319Z,78.20
2019-04-13T07:59:50.689Z,77.30
2019-04-13T08:02:16.781Z,78.10
2019-04-13T08:04:43.071Z,77.70
2019-04-13T08:07:09.294Z,77.80
2019-04-13T08:09:35.543Z,77.10
2019-04-13T08:12:01.702Z,77.40
2019-04-13T08:14:29.307Z,77.30
2019-04-13T08:16:55.730Z,77.40
2019-04-13T08:19:26.771Z,77.40
2019-04-13T08:21:52.894Z,77.30
2019-04-13T08:24:19.019Z,76.80
2019-04-13T08:26:46.431Z,77.20
2019-04-13T08:29:13.364Z,77.10
2019-04-13T08:31:40.680Z,77.00
2019-04-13T08:34:06.967Z,77.00
2019-04-13T08:36:33.258Z,77.20
2019-04-13T08:38:59.629Z,77.50
2019-04-13T08:41:25.830Z,77.50
2019-04-13T08:43:52.084Z,77.90
2019-04-13T08:46:18.302Z,77.30
2019-04-13T08:48:44.439Z,77.10
2019-04-13T08:51:10.788Z,77.90
2019-04-13T08:53:38.758Z,77.00
2019-04-13T08:56:04.892Z,77.00
2019-04-13T08:58:32.369Z,76.20
2019-04-13T09:00:58.595Z,76.10
2019-04-13T09:03:24.821Z,76.20
2019-04-13T09:05:50.975Z,76.40
2019-04-13T09:08:28.918Z,74.50
2019-04-13T09:10:45.181Z,74.90
2019-04-13T09:13:11.563Z,74.90
2019-04-13T09:15:43.389Z,74.90
2019-04-13T09:18:10.514Z,73.50
2019-04-13T09:20:50.286Z,74.50
2019-04-13T09:23:16.505Z,73.20
2019-04-13T09:25:42.780Z,74.40
2019-04-13T09:28:11.555Z,74.60
2019-04-13T09:30:38.843Z,74.60
2019-04-13T09:33:05.050Z,74.50
2019-04-13T09:35:31.194Z,74.20
2019-04-13T09:37:57.352Z,73.50
2019-04-13T09:40:23.694Z,72.60
2019-04-13T09:42:50.001Z,73.00
2019-04-13T09:45:17.249Z,72.10
2019-04-13T09:47:43.475Z,71.70
2019-04-13T09:50:09.744Z,70.90
2019-04-13T09:52:35.982Z,71.50
2019-04-13T09:55:02.361Z,71.90
2019-04-13T09:57:29.260Z,70.80
2019-04-13T09:59:57.310Z,70.90
2019-04-13T10:02:26.097Z,72.30
2019-04-13T10:04:51.821Z,70.80
2019-04-13T10:07:18.055Z,70.80
2019-04-13T10:09:44.256Z,70.60
2019-04-13T10:12:28.833Z,70.90
2019-04-13T10:14:59.945Z,71.00
2019-04-13T10:17:30.731Z,71.30
2019-04-13T10:19:56.946Z,71.60
2019-04-13T10:22:24.603Z,71.00
2019-04-13T10:24:50.883Z,71.90
2019-04-13T10:27:19.412Z,71.40
2019-04-13T10:29:47.165Z,71.80
2019-04-13T10:32:13.297Z,70.70
2019-04-13T10:34:39.636Z,70.90
2019-04-13T10:37:05.884Z,71.00
2019-04-13T10:39:32.163Z,71.20
2019-04-13T10:41:58.794Z,70.80
2019-04-13T10:44:26.938Z,71.30
2019-04-13T10:47:02.619Z,71.50
2019-04-13T10:49:45.666Z,72.50
2019-04-13T10:52:20.950Z,71.80
2019-04-13T10:54:47.723Z,73.80
2019-04-13T10:57:13.930Z,74.00
2019-04-13T10:59:40.220Z,72.90
2019-04-13T11:02:06.354Z,72.80
2019-04-13T11:04:32.610Z,72.30
2019-04-13T11:06:58.828Z,72.50
2019-04-13T11:09:28.526Z,72.30
2019-04-13T11:11:53.236Z,72.80
2019-04-13T11:14:19.460Z,75.00
2019-04-13T11:16:45.715Z,76.60
2019-04-13T11:19:11.971Z,77.10
2019-04-13T11:21:38.298Z,77.20
2019-04-13T11:24:04.515Z,76.80
2019-04-13T11:26:30.870Z,79.10
2019-04-13T11:28:57.149Z,78.50
2019-04-13T11:31:23.705Z,78.50
2019-04-13T11:33:50.053Z,78.00
2019-04-13T11:36:16.480Z,80.40
2019-04-13T11:38:42.735Z,80.20
2019-04-13T11:41:14.039Z,81.00
2019-04-13T11:43:54.039Z,81.70
2019-04-13T11:46:34.378Z,80.20
2019-04-13T11:49:02.433Z,82.10
2019-04-13T11:51:32.172Z,82.80
2019-04-13T11:53:58.400Z,82.30
2019-04-13T11:56:24.729Z,80.20
2019-04-13T11:58:51.130Z,81.10
2019-04-13T12:01:19.221Z,81.30
2019-04-13T12:03:47.339Z,81.70
2019-04-13T12:06:18.368Z,82.30
2019-04-13T12:08:59.288Z,83.80
2019-04-13T12:11:42.062Z,83.60
2019-04-13T12:14:26.872Z,84.60
2019-04-13T12:17:03.822Z,84.80
2019-04-13T12:19:31.942Z,85.50
2019-04-13T12:22:02.789Z,85.60
2019-04-13T12:24:29.008Z,85.70
2019-04-13T12:26:55.273Z,85.90
2019-04-13T12:29:21.508Z,86.30
2019-04-13T12:31:47.959Z,87.70
2019-04-13T12:34:14.165Z,89.00
2019-04-13T12:36:40.400Z,88.20
2019-04-13T12:39:07.733Z,88.00
2019-04-13T12:41:42.294Z,90.00
2019-04-13T12:44:08.763Z,90.40
2019-04-13T12:46:35.171Z,90.90
2019-04-13T12:49:01.310Z,89.90
2019-04-13T12:51:27.548Z,90.20
2019-04-13T12:53:53.702Z,90.70
2019-04-13T12:56:20.000Z,91.20
2019-04-13T12:58:46.353Z,90.90
2019-04-13T13:01:17.082Z,90.10
2019-04-13T13:03:43.207Z,88.30
2019-04-13T13:06:09.553Z,90.30
2019-04-13T13:08:36.924Z,88.40
2019-04-13T13:11:03.946Z,88.40
2019-04-13T13:13:30.066Z,89.10
2019-04-13T13:15:56.331Z,88.60
2019-04-13T13:18:26.119Z,90.70
2019-04-13T13:20:50.718Z,90.10
2019-04-13T13:23:17.068Z,89.70
2019-04-13T13:25:43.207Z,89.00
2019-04-13T13:28:12.111Z,89.00
2019-04-13T13:30:37.592Z,88.90
2019-04-13T13:33:03.884Z,88.40
2019-04-13T13:35:32.863Z,88.30
2019-04-13T13:37:59.098Z,87.90
2019-04-13T13:40:30.984Z,88.40
2019-04-13T13:42:53.398Z,88.50
2019-04-13T13:45:25.058Z,87.40
2019-04-13T13:47:48.833Z,88.80
2019-04-13T13:50:15.266Z,87.60
2019-04-13T13:52:41.499Z,87.70
2019-04-13T13:55:11.394Z,87.00
2019-04-13T13:57:38.587Z,86.90
2019-04-13T14:00:07.254Z,87.40
2019-04-13T14:02:34.801Z,87.00
2019-04-13T14:05:01.398Z,87.20
2019-04-13T14:07:27.667Z,88.50
2019-04-13T14:10:10.300Z,86.30
2019-04-13T14:12:36.545Z,86.00
2019-04-13T14:15:07.464Z,86.80
2019-04-13T14:17:33.053Z,86.70
2019-04-13T14:20:01.399Z,86.90
2019-04-13T14:22:27.388Z,87.30
2019-04-13T14:24:53.662Z,86.00
2019-04-13T14:27:19.923Z,86.30
2019-04-13T14:29:46.155Z,86.20
2019-04-13T14:32:12.343Z,85.40
2019-04-13T14:34:38.561Z,86.10
2019-04-13T14:37:04.799Z,86.20
2019-04-13T14:39:34.536Z,85.10
2019-04-13T14:41:59.265Z,84.70
2019-04-13T14:44:25.406Z,84.50
2019-04-13T14:46:51.583Z,83.90
2019-04-13T14:49:17.818Z,84.00
2019-04-13T14:51:43.961Z,83.70
2019-04-13T14:54:10.250Z,83.90
2019-04-13T14:56:36.385Z,84.40
2019-04-13T14:59:02.896Z,84.40
2019-04-13T15:01:29.047Z,84.10
2019-04-13T15:03:55.267Z,84.60
2019-04-13T15:06:24.866Z,84.90
2019-04-13T15:08:49.661Z,84.70
2019-04-13T15:11:17.409Z,86.10
2019-04-13T15:13:44.978Z,85.80
2019-04-13T15:16:16.383Z,85.70
2019-04-13T15:18:46.081Z,85.30
2019-04-13T15:21:13.225Z,86.00
2019-04-13T15:23:42.464Z,85.20
2019-04-13T15:26:08.151Z,86.00
2019-04-13T15:28:37.912Z,86.30
2019-04-13T15:31:06.110Z,86.10
2019-04-13T15:33:32.775Z,86.80
2019-04-13T15:36:02.798Z,87.00
2019-04-13T15:38:28.416Z,87.20
2019-04-13T15:40:58.654Z,87.60
2019-04-13T15:43:28.603Z,87.00
2019-04-13T15:45:52.545Z,87.70
2019-04-13T15:48:20.264Z,87.70
2019-04-13T15:50:46.765Z,88.40
2019-04-13T15:53:13.969Z,88.70
2019-04-13T15:55:40.179Z,88.00
2019-04-13T15:58:06.353Z,87.90
2019-04-13T16:00:33.803Z,88.40
2019-04-13T16:03:00.543Z,88.30
2019-04-13T16:05:28.747Z,88.30
2019-04-13T16:07:55.181Z,88.20
2019-04-13T16:10:24.716Z,87.80
2019-04-13T16:13:02.467Z,88.30
2019-04-13T16:15:36.427Z,87.70
2019-04-13T16:18:02.822Z,88.10
2019-04-13T16:20:29.477Z,88.20
2019-04-13T16:22:55.856Z,87.80
2019-04-13T16:25:22.775Z,88.00
2019-04-13T16:27:53.679Z,88.60
2019-04-13T16:30:39.068Z,88.80
2019-04-13T16:33:23.949Z,89.40
2019-04-13T16:35:52.088Z,88.50
2019-04-13T16:38:18.328Z,88.90
2019-04-13T16:40:45.680Z,88.60
2019-04-13T16:43:11.930Z,89.30
2019-04-13T16:45:44.286Z,89.90
2019-04-13T16:48:29.589Z,90.10
2019-04-13T16:50:57.792Z,90.30
2019-04-13T16:53:43.096Z,90.50
2019-04-13T16:56:12.221Z,90.60
2019-04-13T16:58:44.127Z,90.70
2019-04-13T17:01:12.516Z,90.80
2019-04-13T17:03:43.793Z,90.90
2019-04-13T17:06:11.289Z,91.00
2019-04-13T17:08:37.446Z,91.30
2019-04-13T17:11:04.868Z,91.30
2019-04-13T17:13:32.277Z,91.00
2019-04-13T17:15:58.869Z,91.10
2019-04-13T17:18:27.455Z,91.10
2019-04-13T17:20:59.835Z,91.10
2019-04-13T17:23:31.499Z,91.10
2019-04-13T17:26:00.078Z,91.30
2019-04-13T17:28:28.836Z,91.20
2019-04-13T17:31:14.187Z,91.20
2019-04-13T17:33:42.445Z,91.10
2019-04-13T17:36:08.672Z,91.20
2019-04-13T17:38:35.113Z,91.50
2019-04-13T17:41:03.631Z,91.60
2019-04-13T17:43:49.500Z,92.00
2019-04-13T17:46:20.600Z,92.10
2019-04-13T17:49:05.197Z,92.10
2019-04-13T17:51:36.052Z,92.30
2019-04-13T17:54:10.470Z,92.30
2019-04-13T17:56:36.677Z,92.50
2019-04-13T17:59:21.995Z,92.70
2019-04-13T18:01:53.118Z,92.70
2019-04-13T18:04:37.723Z,92.80
2019-04-13T18:07:12.159Z,92.80
2019-04-13T18:09:55.994Z,92.80
2019-04-13T18:12:37.502Z,92.80
2019-04-13T18:15:07.439Z,93.00
2019-04-13T18:17:45.235Z,92.90
2019-04-13T18:20:13.514Z,93.20
2019-04-13T18:22:41.387Z,93.20
2019-04-13T18:25:08.100Z,93.30
2019-04-13T18:27:34.935Z,93.30
2019-04-13T18:30:10.373Z,93.20
2019-04-13T18:32:30.135Z,93.40
2019-04-13T18:34:56.501Z,93.40
2019-04-13T18:37:22.753Z,93.40
2019-04-13T18:39:51.517Z,93.40
2019-04-13T18:42:17.612Z,93.50
2019-04-13T18:44:43.822Z,93.80
2019-04-13T18:47:11.304Z,93.70
2019-04-13T18:49:38.846Z,93.90
2019-04-13T18:52:05.215Z,94.00
2019-04-13T18:54:34.329Z,93.90
2019-04-13T18:57:00.621Z,94.10
2019-04-13T18:59:27.311Z,94.00
2019-04-13T19:01:53.837Z,93.90
2019-04-13T19:04:20.197Z,94.10
2019-04-13T19:06:46.459Z,94.20
2019-04-13T19:09:12.863Z,94.40
2019-04-13T19:11:39.192Z,94.50
2019-04-13T19:14:05.511Z,94.50
2019-04-13T19:16:31.660Z,94.50
2019-04-13T19:18:57.899Z,94.40
2019-04-13T19:21:24.266Z,94.30
2019-04-13T19:23:50.490Z,94.50
2019-04-13T19:26:16.648Z,94.40
2019-04-13T19:28:42.925Z,94.70
2019-04-13T19:31:09.266Z,94.80
2019-04-13T19:33:35.390Z,94.80
2019-04-13T19:36:01.611Z,94.90
2019-04-13T19:38:27.964Z,94.90
2019-04-13T19:40:54.211Z,95.00
2019-04-13T19:43:20.439Z,94.80
2019-04-13T19:45:46.833Z,95.00
2019-04-13T19:48:13.080Z,94.90
2019-04-13T19:50:39.323Z,95.10
2019-04-13T19:53:10.447Z,95.30
2019-04-13T19:55:36.707Z,95.30
2019-04-13T19:58:03.181Z,95.40
2019-04-13T20:00:31.442Z,95.40
2019-04-13T20:02:57.665Z,95.50
2019-04-13T20:05:23.914Z,95.70
2019-04-13T20:07:50.079Z,95.70
2019-04-13T20:10:16.374Z,95.90
2019-04-13T20:12:42.666Z,95.90
2019-04-13T20:15:09.751Z,96.10
2019-04-13T20:17:36.073Z,96.40
2019-04-13T20:20:05.235Z,96.30
2019-04-13T20:22:31.776Z,96.30
2019-04-13T20:24:58.525Z,96.20
2019-04-13T20:27:26.050Z,96.20
2019-04-13T20:29:53.298Z,96.00
2019-04-13T20:32:20.771Z,96.20
2019-04-13T20:34:47.171Z,96.50
2019-04-13T20:37:14.321Z,96.40
2019-04-13T20:39:43.880Z,96.40
2019-04-13T20:42:21.871Z,96.40
2019-04-13T20:44:45.368Z,96.70
2019-04-13T20:47:11.601Z,96.60
2019-04-13T20:49:37.791Z,96.50
2019-04-13T20:52:04.074Z,96.80
2019-04-13T20:54:30.288Z,96.80
2019-04-13T20:56:57.741Z,97.10
2019-04-13T20:59:24.179Z,96.90
2019-04-13T21:01:51.639Z,97.20
2019-04-13T21:04:17.974Z,97.10
2019-04-13T21:06:44.200Z,97.20
2019-04-13T21:09:11.727Z,97.30
2019-04-13T21:11:38.053Z,97.30
2019-04-13T21:14:13.819Z,97.40
2019-04-13T21:16:32.579Z,97.40
2019-04-13T21:18:58.826Z,97.20
2019-04-13T21:21:25.916Z,97.70
2019-04-13T21:23:52.192Z,97.40
2019-04-13T21:26:20.987Z,97.40
2019-04-13T21:28:47.229Z,97.30
2019-04-13T21:31:14.998Z,97.10
2019-04-13T21:33:41.153Z,97.20
2019-04-13T21:36:08.737Z,97.50
2019-04-13T21:38:35.242Z,97.30
2019-04-13T21:41:02.208Z,97.30
2019-04-13T21:43:32.314Z,97.20
2019-04-13T21:45:57.944Z,97.30
2019-04-13T21:48:24.239Z,97.20
2019-04-13T21:51:05.169Z,97.50
2019-04-13T21:53:52.785Z,97.30
2019-04-13T21:56:19.066Z,97.20
2019-04-13T21:58:45.224Z,97.30
2019-04-13T22:01:23.499Z,97.20
2019-04-13T22:03:49.781Z,97.10
2019-04-13T22:06:16.670Z,97.20
2019-04-13T22:08:42.976Z,97.50
2019-04-13T22:11:10.309Z,97.80
2019-04-13T22:13:36.664Z,97.70
2019-04-13T22:16:04.152Z,97.70
2019-04-13T22:18:30.374Z,97.80
2019-04-13T22:20:57.896Z,97.90
2019-04-13T22:23:25.722Z,98.00
2019-04-13T22:25:52.314Z,98.00
2019-04-13T22:28:21.536Z,97.90
2019-04-13T22:30:49.765Z,97.80
2019-04-13T22:33:17.518Z,97.70
2019-04-13T22:35:55.009Z,97.60
2019-04-13T22:38:21.900Z,97.80
2019-04-13T22:40:49.453Z,98.00
2019-04-13T22:43:15.962Z,98.00
2019-04-13T22:45:42.608Z,98.00
2019-04-13T22:48:27.405Z,98.00
2019-04-13T22:50:56.768Z,98.00
2019-04-13T22:53:28.421Z,98.10
2019-04-13T22:56:00.447Z,98.10
2019-04-13T22:58:26.940Z,98.20
2019-04-13T23:01:00.862Z,98.20
2019-04-13T23:03:27.241Z,98.30
2019-04-13T23:05:54.525Z,98.30
2019-04-13T23:08:20.939Z,98.20
2019-04-13T23:10:48.556Z,98.00
2019-04-13T23:13:15.148Z,98.00
2019-04-13T23:15:42.513Z,98.00
2019-04-13T23:18:10.245Z,98.00
2019-04-13T23:20:36.526Z,97.90
2019-04-13T23:23:02.906Z,98.00
2019-04-13T23:25:29.171Z,98.10
2019-04-13T23:27:55.366Z,98.10
2019-04-13T23:30:22.628Z,98.40
2019-04-13T23:32:53.120Z,98.30
2019-04-13T23:35:19.696Z,98.30
2019-04-13T23:37:46.060Z,98.40
2019-04-13T23:40:13.617Z,98.60
2019-04-13T23:42:40.074Z,98.40
2019-04-13T23:45:18.413Z,98.50
2019-04-13T23:47:36.209Z,98.50
2019-04-13T23:50:06.992Z,98.50
2019-04-13T23:52:33.269Z,98.50
2019-04-13T23:55:00.721Z,98.50
2019-04-13T23:57:46.383Z,98.60
